Time;durP1;ratioP1;P1;durP2;ratioP2;P2;SDS_P1;SDS_P2;PMS_P1;PMS_P2;Temp;Humidity;BMP_temperature;BMP_pressure;BME280_temperature;BME280_humidity;BME280_pressure;Samples;Min_cycle;Max_cycle;Signal;HPM_P1;HPM_P2
2022/03/31 00:00:20;;;;;;;0.50;0.50;;;;;;;5.94;91.70;95128.19;29373;217;63009;-60
2022/03/31 00:00:51;;;;;;;0.60;0.60;;;;;;;5.93;91.81;95116.63;29395;261;63005;-61
2022/03/31 00:01:22;;;;;;;0.60;0.60;;;;;;;5.94;91.58;95128.19;29373;346;63009;-60
2022/03/31 00:01:53;;;;;;;0.50;0.50;;;;;;;5.94;91.94;95117.41;29371;308;64009;-58
2022/03/31 00:02:25;;;;;;;0.50;0.50;;;;;;;5.94;91.93;95123.59;29373;334;63009;-59
2022/03/31 00:02:57;;;;;;;0.60;0.60;;;;;;;5.93;91.77;95121.22;29373;307;63008;-59
2022/03/31 00:03:29;;;;;;;0.50;0.50;;;;;;;5.93;91.55;95122.00;29373;291;63009;-60
2022/03/31 00:04:00;;;;;;;0.60;0.60;;;;;;;5.94;91.53;95120.91;29373;229;63004;-61
2022/03/31 00:04:32;;;;;;;0.60;0.60;;;;;;;5.94;91.55;95123.59;29373;205;63009;-59
2022/03/31 00:05:04;;;;;;;0.50;0.50;;;;;;;5.93;91.64;95124.69;29373;308;63004;-58
2022/03/31 00:05:39;;;;;;;0.50;0.50;;;;;;;5.95;91.65;95119.81;29373;261;63008;-60
2022/03/31 00:06:11;;;;;;;0.50;0.50;;;;;;;5.94;91.30;95118.22;29371;334;64008;-59
2022/03/31 00:06:42;;;;;;;0.50;0.50;;;;;;;5.94;91.12;95123.59;29373;387;63009;-61
2022/03/31 00:07:19;;;;;;;0.52;0.52;;;;;;;5.93;91.38;95124.69;29373;252;63005;-59
2022/03/31 00:07:53;;;;;;;0.50;0.50;;;;;;;5.92;91.20;95117.72;29371;231;64013;-60
2022/03/31 00:08:24;;;;;;;5.57;5.35;;;;;;;5.93;91.47;95121.22;29395;214;63014;-58
2022/03/31 00:08:56;;;;;;;0.60;0.60;;;;;;;5.94;91.32;95123.59;29395;241;63009;-58
2022/03/31 00:09:27;;;;;;;0.60;0.60;;;;;;;5.93;91.23;95113.94;29395;226;63012;-60
2022/03/31 00:09:59;;;;;;;0.60;0.60;;;;;;;5.92;91.60;95115.03;29395;246;63009;-58
2022/03/31 00:10:35;;;;;;;0.55;0.55;;;;;;;5.93;91.63;95113.94;29395;209;63003;-60
2022/03/31 00:11:12;;;;;;;0.60;0.60;;;;;;;5.93;91.42;95116.63;29395;218;63009;-58
2022/03/31 00:11:43;;;;;;;0.50;0.50;;;;;;;5.92;91.20;95115.03;29394;297;64009;-58
2022/03/31 00:12:14;;;;;;;0.50;0.50;;;;;;;5.93;91.23;95116.63;29395;203;63008;-58
2022/03/31 00:12:45;;;;;;;0.50;0.50;;;;;;;5.92;91.16;95114.25;29395;196;63004;-58
2022/03/31 00:13:19;;;;;;;0.60;0.60;;;;;;;5.91;90.82;95113.44;29395;243;63009;-60
2022/03/31 00:13:50;;;;;;;0.50;0.50;;;;;;;5.90;91.00;95106.47;29394;260;64009;-59
2022/03/31 00:14:21;;;;;;;0.50;0.50;;;;;;;5.90;91.07;95111.06;29373;206;63009;-58
2022/03/31 00:14:52;;;;;;;0.60;0.60;;;;;;;5.89;90.76;95112.94;29395;238;63005;-58
2022/03/31 00:15:25;;;;;;;0.60;0.60;;;;;;;5.89;90.42;95115.63;29395;282;63009;-59
2022/03/31 00:15:58;;;;;;;0.50;0.50;;;;;;;5.88;90.11;95108.66;29373;225;63005;-59
2022/03/31 00:16:29;;;;;;;0.85;0.85;;;;;;;5.87;90.54;95117.84;29371;315;64013;-59
2022/03/31 00:17:01;;;;;;;0.50;0.50;;;;;;;5.87;90.25;95107.06;29373;294;63005;-59
2022/03/31 00:17:32;;;;;;;0.60;0.60;;;;;;;5.89;90.12;95109.50;29373;387;63009;-59
2022/03/31 00:18:05;;;;;;;0.50;0.50;;;;;;;5.89;90.21;95110.25;29373;269;63004;-59
2022/03/31 00:18:37;;;;;;;0.60;0.60;;;;;;;5.89;89.95;95104.12;29373;197;63009;-58
2022/03/31 00:19:08;;;;;;;0.50;0.50;;;;;;;5.89;90.08;95104.88;29373;356;63004;-58
2022/03/31 00:19:40;;;;;;;0.60;0.60;;;;;;;5.88;89.68;95103.28;29373;285;63009;-59
2022/03/31 00:20:12;;;;;;;0.50;0.50;;;;;;;5.87;89.63;95109.78;29373;236;63004;-59
2022/03/31 00:20:43;;;;;;;0.50;0.50;;;;;;;5.88;89.71;95108.66;29395;203;63009;-58
2022/03/31 00:21:15;;;;;;;2.50;2.40;;;;;;;5.84;89.40;95102.31;29394;198;64009;-60
2022/03/31 00:21:48;;;;;;;0.50;0.50;;;;;;;5.84;89.29;95102.31;29395;197;63009;-60
2022/03/31 00:22:20;;;;;;;0.60;0.60;;;;;;;5.84;89.71;95101.50;29395;197;63005;-59
2022/03/31 00:22:51;;;;;;;0.50;0.50;;;;;;;5.85;89.53;95098.50;29373;199;63009;-59
2022/03/31 00:23:22;;;;;;;0.50;0.50;;;;;;;5.86;89.56;95105.50;29371;247;64009;-59
2022/03/31 00:23:54;;;;;;;0.55;0.55;;;;;;;5.86;89.67;95102.78;29373;296;63009;-58
2022/03/31 00:24:25;;;;;;;0.50;0.50;;;;;;;5.88;89.98;95108.66;29395;202;63005;-58
2022/03/31 00:24:56;;;;;;;0.50;0.50;;;;;;;5.89;89.79;95098.72;29373;229;63009;-58
2022/03/31 00:25:27;;;;;;;0.60;0.60;;;;;;;5.88;89.79;95097.91;29395;216;63004;-57
2022/03/31 00:25:58;;;;;;;0.75;0.75;;;;;;;5.87;90.11;95101.69;29373;303;63015;-58
2022/03/31 00:26:31;;;;;;;0.60;0.60;;;;;;;5.86;90.06;95104.69;29373;279;63004;-58
2022/03/31 00:27:04;;;;;;;0.50;0.50;;;;;;;5.85;89.82;95098.50;29373;217;63009;-59
2022/03/31 00:27:37;;;;;;;0.82;0.80;;;;;;;5.85;89.83;95093.13;29373;237;63004;-57
2022/03/31 00:28:08;;;;;;;0.50;0.50;;;;;;;5.87;89.73;95095.50;29373;300;63009;-58
2022/03/31 00:28:40;;;;;;;0.50;0.50;;;;;;;5.86;89.62;95092.03;29371;308;64009;-59
2022/03/31 00:29:11;;;;;;;0.50;0.50;;;;;;;5.84;89.81;95102.31;29373;301;63009;-58
2022/03/31 00:29:42;;;;;;;0.80;0.80;;;;;;;5.85;89.60;95095.81;29373;200;63005;-59
2022/03/31 00:30:14;;;;;;;0.50;0.50;;;;;;;5.84;89.82;95094.22;29373;284;63009;-58
2022/03/31 00:30:45;;;;;;;0.60;0.60;;;;;;;5.83;89.67;95089.16;29373;337;63005;-59
2022/03/31 00:31:17;;;;;;;0.60;0.60;;;;;;;5.82;89.67;95099.13;29373;212;63009;-59
2022/03/31 00:31:48;;;;;;;0.50;0.50;;;;;;;5.81;89.94;95096.72;29373;206;63005;-59
2022/03/31 00:32:19;;;;;;;0.60;0.60;;;;;;;5.79;89.97;95088.16;29373;316;63009;-60
2022/03/31 00:32:50;;;;;;;0.50;0.50;;;;;;;5.78;89.93;95092.75;29373;282;63004;-59
2022/03/31 00:33:25;;;;;;;0.55;0.55;;;;;;;5.79;89.87;95093.56;29373;204;63009;-58
2022/03/31 00:33:56;;;;;;;0.85;0.85;;;;;;;5.80;89.92;95095.94;29371;255;64009;-59
2022/03/31 00:34:28;;;;;;;0.60;0.60;;;;;;;5.81;90.10;95096.72;29373;314;63009;-58
2022/03/31 00:34:59;;;;;;;0.50;0.50;;;;;;;5.81;90.20;95094.03;29395;382;63004;-58
2022/03/31 00:35:30;;;;;;;0.50;0.50;;;;;;;5.81;90.16;95084.06;29373;202;63008;-58
2022/03/31 00:36:02;;;;;;;0.50;0.50;;;;;;;5.82;90.41;95088.34;29373;290;63005;-58
2022/03/31 00:36:33;;;;;;;0.50;0.50;;;;;;;5.82;90.29;95088.34;29373;241;63009;-59
2022/03/31 00:37:05;;;;;;;0.50;0.50;;;;;;;5.83;90.54;95089.16;29373;298;63005;-58
2022/03/31 00:37:37;;;;;;;0.50;0.50;;;;;;;5.83;90.37;95087.25;29373;329;63009;-58
2022/03/31 00:38:10;;;;;;;0.50;0.50;;;;;;;5.84;90.59;95085.34;29395;319;63005;-57
2022/03/31 00:39:28;;;;;;;0.50;0.50;;;;;;;5.83;90.62;95083.75;29371;287;64013;-58
2022/03/31 00:39:32;;;;;;;0.60;0.60;;;;;;;5.83;90.34;95078.38;29417;202;63012;-58
2022/03/31 00:40:06;;;;;;;0.60;0.60;;;;;;;5.83;90.22;95079.19;29395;334;63009;-58
2022/03/31 00:40:37;;;;;;;0.60;0.60;;;;;;;5.83;90.37;95081.06;29373;238;63004;-59
2022/03/31 00:41:10;;;;;;;0.60;0.60;;;;;;;5.83;90.31;95081.88;29373;223;63014;-58
2022/03/31 00:41:41;;;;;;;0.50;0.50;;;;;;;5.82;90.41;95080.28;29373;224;63004;-58
2022/03/31 00:42:15;;;;;;;0.50;0.50;;;;;;;5.82;90.29;95082.97;29373;229;63013;-59
2022/03/31 00:42:49;;;;;;;0.52;0.52;;;;;;;5.82;90.23;95077.59;29394;198;64008;-60
2022/03/31 00:43:21;;;;;;;0.50;0.50;;;;;;;5.82;90.19;95076.78;29395;263;63009;-59
2022/03/31 00:43:54;;;;;;;0.50;0.50;;;;;;;5.80;90.32;95071.72;29395;303;63005;-60
2022/03/31 00:44:26;;;;;;;0.50;0.50;;;;;;;5.80;90.04;95073.62;29371;230;64014;-59
2022/03/31 00:44:57;;;;;;;0.50;0.50;;;;;;;5.77;89.73;95076.91;29373;262;63005;-58
2022/03/31 00:45:36;;;;;;;0.60;0.60;;;;;;;5.76;89.59;95078.00;29373;218;63009;-58
2022/03/31 00:46:21;;;;;;;0.60;0.60;;;;;;;5.75;89.92;95071.84;29373;204;63008;-59
2022/03/31 00:46:55;;;;;;;0.50;0.50;;;;;;;5.76;89.91;95070.75;29373;318;63009;-59
2022/03/31 00:47:27;;;;;;;0.50;0.50;;;;;;;5.78;89.65;95071.22;29373;213;63004;-59
2022/03/31 00:48:00;;;;;;;0.50;0.50;;;;;;;5.78;89.54;95065.84;29373;216;63009;-59
2022/03/31 00:48:31;;;;;;;0.50;0.50;;;;;;;5.77;89.40;95066.94;29373;337;63004;-58
2022/03/31 00:49:02;;;;;;;0.57;0.57;;;;;;;5.79;89.57;95066.62;29373;225;63009;-59
2022/03/31 00:49:34;;;;;;;0.50;0.50;;;;;;;5.78;89.67;95065.84;29371;208;64009;-58
2022/03/31 00:50:06;;;;;;;0.60;0.60;;;;;;;5.77;89.87;95053.50;29373;242;63008;-57
2022/03/31 00:50:38;;;;;;;0.50;0.50;;;;;;;5.77;89.77;95064.25;29373;384;63009;-57
2022/03/31 00:51:09;;;;;;;0.50;0.50;;;;;;;5.77;89.74;95064.25;29373;245;63009;-59
2022/03/31 00:51:40;;;;;;;0.60;0.60;;;;;;;5.77;89.99;95050.78;29372;275;63005;-59
2022/03/31 00:52:13;;;;;;;0.50;0.50;;;;;;;5.78;89.78;95062.34;29373;231;63009;-58
2022/03/31 00:52:45;;;;;;;0.50;0.50;;;;;;;5.76;90.07;95062.66;29371;202;64009;-58
2022/03/31 00:53:17;;;;;;;0.50;0.50;;;;;;;5.75;90.06;95061.06;29373;304;63009;-58
2022/03/31 00:53:48;;;;;;;0.50;0.50;;;;;;;5.74;90.37;95062.16;29373;344;63005;-59
2022/03/31 00:54:23;;;;;;;0.57;0.57;;;;;;;5.74;90.14;95062.16;29373;271;63009;-58
2022/03/31 00:54:55;;;;;;;0.50;0.50;;;;;;;5.72;90.41;95057.09;29373;364;63005;-58
2022/03/31 00:55:26;;;;;;;0.60;0.60;;;;;;;5.72;90.19;95062.47;29373;221;63009;-58
2022/03/31 00:56:00;;;;;;;1.50;1.40;;;;;;;5.73;90.38;95058.69;29394;226;64009;-59
2022/03/31 00:56:33;;;;;;;0.60;0.60;;;;;;;5.74;90.24;95064.88;29373;215;63009;-58
2022/03/31 00:57:06;;;;;;;0.50;0.50;;;;;;;5.76;90.13;95067.25;29373;196;63004;-59
2022/03/31 00:57:38;;;;;;;0.50;0.50;;;;;;;5.75;90.35;95061.06;29373;288;63008;-59
2022/03/31 00:58:14;;;;;;;0.60;0.60;;;;;;;5.73;90.68;95053.31;29373;223;63004;-62
2022/03/31 00:58:51;;;;;;;0.50;0.50;;;;;;;5.72;90.70;95061.69;29373;273;63009;-60
2022/03/31 00:59:22;;;;;;;0.55;0.55;;;;;;;5.70;90.35;95058.50;29371;197;64009;-58
2022/03/31 00:59:54;;;;;;;0.60;0.60;;;;;;;5.69;90.37;95059.59;29371;198;64014;-58
2022/03/31 01:00:25;;;;;;;0.55;0.55;;;;;;;5.68;90.25;95055.31;29395;217;63016;-58
2022/03/31 01:00:56;;;;;;;0.50;0.50;;;;;;;5.66;89.93;95057.50;29395;222;63009;-59
2022/03/31 01:01:28;;;;;;;0.50;0.50;;;;;;;5.65;90.22;95055.94;29395;337;63005;-59
2022/03/31 01:02:01;;;;;;;0.50;0.50;;;;;;;5.66;90.05;95060.22;29373;231;63017;-60
2022/03/31 01:02:33;;;;;;;0.55;0.55;;;;;;;5.66;90.44;95065.59;29373;255;63004;-60
2022/03/31 01:03:05;;;;;;;0.50;0.50;;;;;;;5.66;90.24;95062.91;29373;365;63009;-59
2022/03/31 01:03:36;;;;;;;0.60;0.60;;;;;;;5.64;90.47;95060.50;29371;266;64009;-58
2022/03/31 01:04:07;;;;;;;0.50;0.50;;;;;;;5.65;90.50;95055.94;29373;202;63009;-59
2022/03/31 01:04:40;;;;;;;0.60;0.60;;;;;;;5.64;90.45;95054.34;29373;350;63004;-59
2022/03/31 01:05:14;;;;;;;0.60;0.60;;;;;;;5.64;90.40;95059.72;29373;292;63008;-59
2022/03/31 01:05:45;;;;;;;0.50;0.50;;;;;;;5.65;90.36;95055.94;29373;345;63004;-59
2022/03/31 01:06:16;;;;;;;0.60;0.60;;;;;;;5.65;90.44;95061.31;29373;217;63009;-59
2022/03/31 01:06:49;;;;;;;0.50;0.50;;;;;;;5.64;90.45;95062.41;29373;324;63005;-60
2022/03/31 01:07:21;;;;;;;0.60;0.60;;;;;;;5.63;90.30;95058.12;29373;275;63009;-59
2022/03/31 01:07:52;;;;;;;0.60;0.60;;;;;;;5.64;90.39;95060.50;29371;329;64009;-58
2022/03/31 01:08:23;;;;;;;0.50;0.50;;;;;;;5.64;90.42;95059.72;29373;378;63009;-59
2022/03/31 01:08:56;;;;;;;0.50;0.50;;;;;;;5.64;90.13;95062.41;29373;355;63005;-58
2022/03/31 01:09:31;;;;;;;0.60;0.60;;;;;;;5.64;90.38;95059.72;29373;244;63009;-58
2022/03/31 01:10:04;;;;;;;0.50;0.50;;;;;;;5.63;89.92;95064.31;29373;238;63004;-59
2022/03/31 01:10:35;;;;;;;0.50;0.50;;;;;;;5.63;89.94;95066.19;29373;291;63009;-59
2022/03/31 01:11:10;;;;;;;0.50;0.50;;;;;;;5.63;89.63;95058.94;29371;250;64009;-58
2022/03/31 01:11:41;;;;;;;0.50;0.50;;;;;;;5.63;89.67;95058.12;29373;241;63009;-58
2022/03/31 01:12:12;;;;;;;0.60;0.60;;;;;;;5.62;89.79;95056.53;29373;305;63004;-59
2022/03/31 01:12:43;;;;;;;0.50;0.50;;;;;;;5.62;89.68;95051.94;29371;257;64014;-59
2022/03/31 01:13:15;;;;;;;0.50;0.50;;;;;;;5.63;89.75;95052.75;29373;199;63005;-61
2022/03/31 01:13:46;;;;;;;0.50;0.50;;;;;;;5.63;89.79;95052.75;29395;335;63009;-59
2022/03/31 01:14:17;;;;;;;0.52;0.52;;;;;;;5.63;89.81;95047.37;29373;240;63011;-59
2022/03/31 01:15:06;;;;;;;0.50;0.50;;;;;;;5.63;89.76;95047.37;29373;223;63017;-59
2022/03/31 01:15:40;;;;;;;0.50;0.50;;;;;;;5.63;89.68;95050.06;29394;199;64009;-59
2022/03/31 01:16:11;;;;;;;0.60;0.60;;;;;;;5.64;89.73;95047.06;29371;316;64013;-58
2022/03/31 01:16:43;;;;;;;0.50;0.50;;;;;;;5.65;89.62;95055.94;29373;285;63005;-58
2022/03/31 01:17:14;;;;;;;0.60;0.60;;;;;;;5.65;89.17;95051.34;29373;196;63009;-59
2022/03/31 01:17:48;;;;;;;0.50;0.50;;;;;;;5.65;89.30;95045.97;29373;218;63004;-59
2022/03/31 01:18:19;;;;;;;0.60;0.60;;;;;;;5.65;89.04;95051.34;29373;300;63009;-58
2022/03/31 01:18:53;;;;;;;0.50;0.50;;;;;;;5.65;89.15;95050.53;29373;244;63004;-58
2022/03/31 01:19:24;;;;;;;0.50;0.50;;;;;;;5.65;88.89;95051.34;29373;314;63008;-60
2022/03/31 01:19:55;;;;;;;0.50;0.50;;;;;;;5.66;88.82;95046.75;29373;239;63004;-59
2022/03/31 01:20:26;;;;;;;0.50;0.50;;;;;;;5.65;88.71;95050.53;29373;223;63020;-59
2022/03/31 01:20:57;;;;;;;0.50;0.50;;;;;;;5.65;88.89;95050.53;29373;212;63005;-58
2022/03/31 01:21:28;;;;;;;0.50;0.50;;;;;;;5.63;88.89;95047.37;29371;199;64003;-59
2022/03/31 01:22:00;;;;;;;0.50;0.50;;;;;;;5.61;88.65;95052.25;29395;197;63005;-59
2022/03/31 01:22:33;;;;;;;0.50;0.50;;;;;;;5.60;88.84;95048.78;29373;351;63009;-59
2022/03/31 01:23:11;;;;;;;0.50;0.50;;;;;;;5.61;88.91;95049.56;29373;256;63005;-58
2022/03/31 01:23:44;;;;;;;0.50;0.50;;;;;;;5.62;88.86;95045.78;29395;208;63009;-58
2022/03/31 01:24:17;;;;;;;0.50;0.50;;;;;;;5.59;88.67;95044.50;29373;293;63005;-58
2022/03/31 01:24:48;;;;;;;0.50;0.50;;;;;;;5.59;88.70;95044.50;29373;265;63014;-58
2022/03/31 01:25:20;;;;;;;0.60;0.60;;;;;;;5.60;89.02;95048.78;29373;204;63004;-59
2022/03/31 01:25:51;;;;;;;0.60;0.60;;;;;;;5.59;88.75;95046.37;29371;330;64013;-59
2022/03/31 01:26:22;;;;;;;0.50;0.50;;;;;;;5.59;88.66;95041.00;29373;209;63004;-58
2022/03/31 01:26:54;;;;;;;0.52;0.52;;;;;;;5.58;88.59;95037.50;29373;196;63008;-59
2022/03/31 01:27:25;;;;;;;0.52;0.52;;;;;;;5.58;88.75;95050.16;29373;236;63004;-58
2022/03/31 01:27:57;;;;;;;0.50;0.50;;;;;;;5.59;88.51;95046.37;29373;275;63009;-58
2022/03/31 01:28:28;;;;;;;0.60;0.60;;;;;;;5.59;88.63;95047.19;29373;216;63005;-58
2022/03/31 01:28:59;;;;;;;0.50;0.50;;;;;;;5.62;88.61;95029.63;29373;251;63009;-59
2022/03/31 01:29:31;;;;;;;0.50;0.50;;;;;;;5.61;88.41;95044.19;29372;197;63005;-60
2022/03/31 01:30:05;;;;;;;0.50;0.50;;;;;;;5.62;88.04;95045.78;29373;200;63005;-58
2022/03/31 01:30:36;;;;;;;0.50;0.50;;;;;;;5.62;87.96;95041.19;29373;231;63005;-59
2022/03/31 01:31:08;;;;;;;0.60;0.60;;;;;;;5.63;87.96;95041.97;29371;312;64013;-59
2022/03/31 01:31:39;;;;;;;0.50;0.50;;;;;;;5.62;87.19;95035.00;29373;278;63005;-59
2022/03/31 01:32:11;;;;;;;0.50;0.50;;;;;;;5.62;87.29;95035.00;29373;202;63009;-59
2022/03/31 01:32:44;;;;;;;0.50;0.50;;;;;;;5.62;87.10;95035.00;29373;325;63004;-58
2022/03/31 01:33:16;;;;;;;0.50;0.50;;;;;;;5.60;87.02;95034.53;29373;236;63009;-59
2022/03/31 01:33:49;;;;;;;0.50;0.50;;;;;;;5.64;87.19;95038.19;29371;219;64009;-59
2022/03/31 01:34:20;;;;;;;0.50;0.50;;;;;;;5.65;86.42;95029.81;29373;306;63009;-59
2022/03/31 01:34:51;;;;;;;0.60;0.60;;;;;;;5.66;86.43;95033.31;29373;324;63004;-59
2022/03/31 01:35:23;;;;;;;0.50;0.50;;;;;;;5.65;86.08;95031.72;29373;229;63009;-59
2022/03/31 01:35:55;;;;;;;0.60;0.60;;;;;;;5.63;86.60;95036.59;29371;225;64009;-59
2022/03/31 01:36:26;;;;;;;0.50;0.50;;;;;;;5.61;86.49;95022.66;29373;282;63009;-58
2022/03/31 01:36:58;;;;;;;0.50;0.50;;;;;;;5.59;86.72;95035.62;29373;293;63005;-59
2022/03/31 01:37:29;;;;;;;0.50;0.50;;;;;;;5.57;86.63;95032.44;29373;381;63009;-58
2022/03/31 01:38:00;;;;;;;0.50;0.50;;;;;;;5.56;86.72;95030.84;29373;280;63005;-58
2022/03/31 01:38:32;;;;;;;0.60;0.60;;;;;;;5.55;86.88;95026.56;29373;244;63009;-60
2022/03/31 01:39:05;;;;;;;0.50;0.50;;;;;;;5.52;86.97;95029.91;29373;237;63000;-59
2022/03/31 01:39:40;;;;;;;0.60;0.60;;;;;;;5.51;86.82;95025.63;29373;235;63009;-58
2022/03/31 01:40:12;;;;;;;0.50;0.50;;;;;;;5.48;87.78;95028.91;29373;269;63014;-59
2022/03/31 01:40:44;;;;;;;0.60;0.60;;;;;;;5.48;87.98;95034.28;29373;256;63009;-58
2022/03/31 01:41:16;;;;;;;0.60;0.60;;;;;;;5.47;87.81;95030.81;29372;249;64009;-59
2022/03/31 01:41:47;;;;;;;0.50;0.50;;;;;;;5.47;87.91;95030.00;29374;205;63004;-58
2022/03/31 01:42:18;;;;;;;0.50;0.50;;;;;;;5.45;88.12;95024.16;29374;333;63004;-59
2022/03/31 01:42:50;;;;;;;0.50;0.50;;;;;;;5.44;87.94;95019.88;29374;228;63009;-59
2022/03/31 01:43:21;;;;;;;0.50;0.50;;;;;;;5.45;87.88;95029.53;29374;291;63001;-58
2022/03/31 01:43:52;;;;;;;0.50;0.50;;;;;;;5.44;87.72;95028.72;29374;216;63009;-58
2022/03/31 01:44:24;;;;;;;0.60;0.60;;;;;;;5.43;88.05;95026.34;29374;210;63005;-58
2022/03/31 01:44:57;;;;;;;0.50;0.50;;;;;;;5.44;87.92;95022.56;29374;225;63009;-59
2022/03/31 01:45:30;;;;;;;0.60;0.60;;;;;;;5.46;88.09;95023.03;29374;352;63005;-59
2022/03/31 01:46:02;;;;;;;0.50;0.50;;;;;;;5.48;87.79;95020.84;29374;208;63009;-58
2022/03/31 01:46:33;;;;;;;0.60;0.60;;;;;;;5.49;87.48;95025.13;29372;197;64009;-59
2022/03/31 01:47:05;;;;;;;0.52;0.52;;;;;;;5.52;87.45;95013.75;29374;230;63009;-58
2022/03/31 01:47:37;;;;;;;0.60;0.60;;;;;;;5.52;87.39;95019.13;29374;217;63004;-58
2022/03/31 01:48:09;;;;;;;0.82;0.82;;;;;;;5.51;86.96;95018.34;29374;378;63009;-59
2022/03/31 01:48:40;;;;;;;0.60;0.60;;;;;;;5.51;86.92;95020.25;29374;512;63004;-59
2022/03/31 01:49:11;;;;;;;0.50;0.50;;;;;;;5.51;86.59;95017.56;29374;225;63009;-59
2022/03/31 01:49:43;;;;;;;0.60;0.60;;;;;;;5.51;87.01;95006.78;29374;217;63010;-59
2022/03/31 01:50:15;;;;;;;0.50;0.50;;;;;;;5.50;86.83;95016.75;29372;222;64013;-60
2022/03/31 01:50:47;;;;;;;0.60;0.60;;;;;;;5.50;86.90;95015.97;29374;199;63005;-58
2022/03/31 01:51:19;;;;;;;0.55;0.55;;;;;;;5.48;86.87;95015.47;29372;216;64014;-60
2022/03/31 01:51:50;;;;;;;0.50;0.50;;;;;;;5.48;87.07;95012.78;29374;366;63005;-59
2022/03/31 01:52:24;;;;;;;0.50;0.50;;;;;;;5.48;87.22;95018.94;29374;353;63009;-59
2022/03/31 01:52:55;;;;;;;0.50;0.50;;;;;;;5.47;86.77;95009.28;29374;322;63005;-58
2022/03/31 01:53:28;;;;;;;0.60;0.60;;;;;;;5.46;86.57;95013.09;29374;282;63009;-58
2022/03/31 01:53:59;;;;;;;1.42;1.42;;;;;;;5.47;86.75;95013.88;29372;235;64009;-58
2022/03/31 01:54:30;;;;;;;0.50;0.50;;;;;;;5.47;86.87;95008.50;29372;276;64002;-59
2022/03/31 01:55:02;;;;;;;0.50;0.50;;;;;;;5.47;86.88;95009.28;29374;342;63004;-58
2022/03/31 01:55:33;;;;;;;0.60;0.60;;;;;;;5.47;86.93;95000.44;29372;219;64013;-58
2022/03/31 01:56:06;;;;;;;0.50;0.50;;;;;;;5.46;86.86;95009.59;29374;241;63004;-60
2022/03/31 01:56:42;;;;;;;0.70;0.70;;;;;;;5.46;87.26;95006.91;29372;306;64027;-60
2022/03/31 01:57:17;;;;;;;0.60;0.60;;;;;;;5.46;87.36;95010.41;29374;304;63004;-61
2022/03/31 01:57:48;;;;;;;0.60;0.60;;;;;;;5.46;87.02;95005.00;29374;220;63008;-58
2022/03/31 01:58:19;;;;;;;0.50;0.50;;;;;;;5.45;87.19;95008.00;29374;243;63005;-57
2022/03/31 01:58:50;;;;;;;0.60;0.60;;;;;;;5.44;87.07;95003.72;29374;321;63009;-57
2022/03/31 01:59:22;;;;;;;0.60;0.60;;;;;;;5.43;87.24;95008.31;29374;199;63005;-59
2022/03/31 01:59:54;;;;;;;0.60;0.60;;;;;;;5.42;87.06;94998.66;29372;362;64013;-58
2022/03/31 02:00:26;;;;;;;0.60;0.60;;;;;;;5.43;87.12;95002.13;29372;198;64022;-59
2022/03/31 02:00:59;;;;;;;0.50;0.50;;;;;;;5.42;87.30;95004.03;29374;357;63009;-58
2022/03/31 02:01:30;;;;;;;0.60;0.60;;;;;;;5.41;87.22;94999.75;29374;199;63004;-59
2022/03/31 02:02:02;;;;;;;0.50;0.50;;;;;;;5.39;87.09;95001.94;29374;198;63009;-58
2022/03/31 02:02:34;;;;;;;0.50;0.50;;;;;;;5.38;87.36;94997.66;29374;345;63004;-58
2022/03/31 02:03:05;;;;;;;0.60;0.60;;;;;;;5.37;87.01;94999.56;29374;197;63009;-60
2022/03/31 02:03:36;;;;;;;0.50;0.50;;;;;;;5.38;87.41;95001.16;29372;275;64009;-59
2022/03/31 02:04:07;;;;;;;0.50;0.50;;;;;;;5.38;87.11;95001.16;29374;256;63008;-59
2022/03/31 02:04:42;;;;;;;0.60;0.60;;;;;;;5.37;87.27;95001.47;29374;362;63005;-58
2022/03/31 02:05:14;;;;;;;0.60;0.60;;;;;;;5.35;86.87;94993.69;29374;250;63009;-58
2022/03/31 02:05:45;;;;;;;0.60;0.60;;;;;;;5.33;86.68;94995.09;29372;364;64009;-59
2022/03/31 02:06:16;;;;;;;0.50;0.50;;;;;;;5.32;86.45;94993.50;29374;270;63009;-59
2022/03/31 02:06:47;;;;;;;0.60;0.60;;;;;;;5.32;86.77;94999.69;29396;205;63005;-59
2022/03/31 02:07:18;;;;;;;0.50;0.50;;;;;;;5.32;86.41;94999.69;29396;233;63009;-59
2022/03/31 02:07:56;;;;;;;0.52;0.52;;;;;;;5.32;86.60;94994.31;29374;299;63005;-58
2022/03/31 02:08:27;;;;;;;0.60;0.60;;;;;;;5.31;86.59;94998.09;29374;219;63009;-58
2022/03/31 02:08:58;;;;;;;0.50;0.50;;;;;;;5.32;86.52;94983.53;29372;219;64009;-59
2022/03/31 02:09:30;;;;;;;0.60;0.60;;;;;;;5.34;86.55;94989.41;29374;222;63009;-58
2022/03/31 02:10:01;;;;;;;0.50;0.50;;;;;;;5.34;86.79;94989.41;29373;311;63004;-58
2022/03/31 02:10:32;;;;;;;0.88;0.88;;;;;;;5.34;86.47;94986.72;29374;213;63009;-59
2022/03/31 02:11:04;;;;;;;0.60;0.60;;;;;;;5.34;86.83;94981.34;29396;334;63004;-58
2022/03/31 02:11:35;;;;;;;0.50;0.50;;;;;;;5.35;86.51;94993.69;29373;215;63008;-58
2022/03/31 02:12:07;;;;;;;0.60;0.60;;;;;;;5.36;86.56;94983.72;29396;288;63004;-60
2022/03/31 02:12:39;;;;;;;0.60;0.60;;;;;;;5.35;86.62;94990.22;29374;240;63009;-58
2022/03/31 02:13:10;;;;;;;0.60;0.60;;;;;;;5.35;86.91;94982.94;29374;228;63010;-58
2022/03/31 02:13:43;;;;;;;0.60;0.60;;;;;;;5.34;86.72;94984.03;29373;229;63009;-59
2022/03/31 02:14:15;;;;;;;0.55;0.55;;;;;;;5.34;86.64;94986.72;29372;305;64009;-58
2022/03/31 02:14:46;;;;;;;0.85;0.85;;;;;;;5.32;86.48;94988.94;29374;213;63009;-58
2022/03/31 02:15:20;;;;;;;0.80;0.80;;;;;;;5.31;86.18;94984.66;29374;292;63005;-57
2022/03/31 02:15:52;;;;;;;0.60;0.60;;;;;;;5.30;86.07;94991.13;29375;320;63009;-58
2022/03/31 02:16:23;;;;;;;0.60;0.60;;;;;;;5.33;86.34;94987.81;29375;261;63004;-58
2022/03/31 02:16:58;;;;;;;0.60;0.60;;;;;;;5.35;86.08;94984.84;29375;291;63009;-59
2022/03/31 02:17:35;;;;;;;0.50;0.50;;;;;;;5.35;86.50;94982.94;29375;235;63004;-58
2022/03/31 02:18:06;;;;;;;0.60;0.60;;;;;;;5.38;86.16;94993.09;29375;309;63009;-59
2022/03/31 02:18:37;;;;;;;0.50;0.50;;;;;;;5.38;86.01;94990.41;29375;260;63004;-59
2022/03/31 02:19:08;;;;;;;0.57;0.57;;;;;;;5.36;86.03;94981.84;29375;283;63008;-59
2022/03/31 02:19:40;;;;;;;0.50;0.50;;;;;;;5.36;86.07;94983.72;29373;202;64008;-58
2022/03/31 02:20:11;;;;;;;0.60;0.60;;;;;;;5.37;86.18;94982.62;29375;314;63009;-58
2022/03/31 02:20:42;;;;;;;0.60;0.60;;;;;;;5.35;86.19;94982.94;29375;287;63005;-59
2022/03/31 02:21:15;;;;;;;0.60;0.60;;;;;;;5.34;86.16;94983.25;29375;304;63009;-58
2022/03/31 02:21:46;;;;;;;0.50;0.50;;;;;;;5.34;86.52;94981.34;29375;344;63005;-58
2022/03/31 02:22:18;;;;;;;0.60;0.60;;;;;;;5.36;86.35;94983.72;29375;243;63009;-58
2022/03/31 02:22:51;;;;;;;0.60;0.60;;;;;;;5.37;86.59;94985.31;29375;215;63010;-58
2022/03/31 02:23:23;;;;;;;0.60;0.60;;;;;;;5.36;86.48;94981.84;29396;227;63009;-58
2022/03/31 02:23:54;;;;;;;0.50;0.50;;;;;;;5.35;86.71;94982.94;29375;235;63009;-58
2022/03/31 02:24:26;;;;;;;0.60;0.60;;;;;;;5.35;86.81;94977.56;29374;338;64013;-57
2022/03/31 02:24:57;;;;;;;0.50;0.50;;;;;;;5.34;86.86;94981.34;29376;247;63004;-57
2022/03/31 02:25:30;;;;;;;0.50;0.50;;;;;;;5.33;87.03;94977.06;29376;205;63009;-59
2022/03/31 02:26:01;;;;;;;0.60;0.60;;;;;;;5.30;86.67;94983.06;29376;196;63009;-61
2022/03/31 02:26:32;;;;;;;0.60;0.60;;;;;;;5.28;86.76;94981.78;29376;231;63008;-59
2022/03/31 02:27:04;;;;;;;0.60;0.60;;;;;;;5.27;86.73;94980.97;29376;196;63004;-59
2022/03/31 02:27:36;;;;;;;0.60;0.60;;;;;;;5.26;86.94;94982.06;29376;242;63014;-58
2022/03/31 02:28:07;;;;;;;0.50;0.50;;;;;;;5.27;86.97;94986.34;29376;298;63005;-58
2022/03/31 02:28:39;;;;;;;0.60;0.60;;;;;;;5.27;86.85;94969.44;29376;218;63009;-58
2022/03/31 02:29:12;;;;;;;0.60;0.60;;;;;;;5.27;86.51;94978.28;29374;273;64009;-59
2022/03/31 02:29:45;;;;;;;0.80;0.80;;;;;;;5.25;86.42;94977.78;29376;257;63009;-59
2022/03/31 02:30:20;;;;;;;0.50;0.50;;;;;;;5.24;86.32;94968.13;29376;221;63005;-58
2022/03/31 02:30:51;;;;;;;0.50;0.50;;;;;;;5.22;86.22;94973.03;29376;202;63009;-58
2022/03/31 02:31:23;;;;;;;0.60;0.60;;;;;;;5.22;86.24;94978.41;29374;202;64009;-58
2022/03/31 02:31:54;;;;;;;0.52;0.52;;;;;;;5.23;86.28;94976.50;29376;205;63009;-58
2022/03/31 02:32:25;;;;;;;0.60;0.60;;;;;;;5.23;86.44;94974.62;29376;248;63006;-58
2022/03/31 02:32:59;;;;;;;0.50;0.50;;;;;;;5.23;86.39;94973.81;29376;222;63009;-60
2022/03/31 02:33:30;;;;;;;0.50;0.50;;;;;;;5.21;86.55;94971.44;29376;296;63008;-59
2022/03/31 02:34:05;;;;;;;0.50;0.50;;;;;;;5.22;86.39;94973.03;29376;342;63008;-58
2022/03/31 02:34:36;;;;;;;0.50;0.50;;;;;;;5.20;86.35;94975.22;29374;309;64008;-59
2022/03/31 02:35:09;;;;;;;0.50;0.50;;;;;;;5.19;86.86;94975.56;29374;250;64014;-59
2022/03/31 02:35:40;;;;;;;0.50;0.50;;;;;;;5.19;87.26;94973.66;29376;327;63005;-59